sensor_id;sensor_type;location;lat;lon;timestamp;pressure;altitude;pressure_sealevel;temperature;humidity
596;BME280;19946;49.306;11.350;2023-08-17T00:00:11;96533.50;;;21.49;100.00
596;BME280;19946;49.306;11.350;2023-08-17T00:03:14;96497.94;;;21.25;100.00
596;BME280;19946;49.306;11.350;2023-08-17T00:06:14;96435.47;;;20.78;100.00
596;BME280;19946;49.306;11.350;2023-08-17T00:09:15;96535.88;;;21.37;100.00
596;BME280;19946;49.306;11.350;2023-08-17T00:12:15;96531.63;;;21.36;100.00
596;BME280;19946;49.306;11.350;2023-08-17T00:15:15;96438.72;;;20.80;100.00
596;BME280;19946;49.306;11.350;2023-08-17T00:18:21;96526.78;;;21.46;100.00
596;BME280;19946;49.306;11.350;2023-08-17T00:21:21;96469.66;;;21.12;100.00
596;BME280;19946;49.306;11.350;2023-08-17T00:24:22;96535.13;;;21.50;100.00
596;BME280;19946;49.306;11.350;2023-08-17T00:27:22;96469.53;;;21.21;100.00
596;BME280;19946;49.306;11.350;2023-08-17T00:30:22;96523.53;;;21.44;100.00
596;BME280;19946;49.306;11.350;2023-08-17T00:33:23;96479.47;;;21.19;100.00
596;BME280;19946;49.306;11.350;2023-08-17T00:36:23;96529.06;;;21.56;100.00
596;BME280;19946;49.306;11.350;2023-08-17T00:39:24;96458.25;;;20.99;100.00
596;BME280;19946;49.306;11.350;2023-08-17T00:42:24;96420.06;;;20.75;100.00
596;BME280;19946;49.306;11.350;2023-08-17T00:45:24;96531.88;;;21.48;100.00
596;BME280;19946;49.306;11.350;2023-08-17T00:48:26;96525.78;;;21.47;100.00
596;BME280;19946;49.306;11.350;2023-08-17T00:51:29;96510.94;;;21.33;100.00
596;BME280;19946;49.306;11.350;2023-08-17T00:54:30;96525.88;;;21.26;100.00
596;BME280;19946;49.306;11.350;2023-08-17T00:57:31;96468.72;;;20.86;100.00
596;BME280;19946;49.306;11.350;2023-08-17T01:00:32;96510.16;;;21.11;100.00
596;BME280;19946;49.306;11.350;2023-08-17T01:03:33;96502.06;;;21.06;100.00
596;BME280;19946;49.306;11.350;2023-08-17T01:06:34;96469.53;;;20.86;100.00
596;BME280;19946;49.306;11.350;2023-08-17T01:09:39;96533.97;;;21.18;100.00
596;BME280;19946;49.306;11.350;2023-08-17T01:15:56;96473.56;;;20.54;100.00
596;BME280;19946;49.306;11.350;2023-08-17T01:19:00;96484.88;;;20.33;100.00
596;BME280;19946;49.306;11.350;2023-08-17T01:22:03;96535.38;;;20.65;100.00
596;BME280;19946;49.306;11.350;2023-08-17T01:25:05;96538.84;;;20.44;100.00
596;BME280;19946;49.306;11.350;2023-08-17T01:28:05;96495.16;;;19.86;100.00
596;BME280;19946;49.306;11.350;2023-08-17T01:31:13;96483.88;;;19.71;100.00
596;BME280;19946;49.306;11.350;2023-08-17T01:34:18;96530.00;;;19.58;100.00
596;BME280;19946;49.306;11.350;2023-08-17T01:37:20;96542.06;;;19.67;100.00
596;BME280;19946;49.306;11.350;2023-08-17T01:40:22;96548.78;;;19.55;100.00
596;BME280;19946;49.306;11.350;2023-08-17T01:43:23;96567.22;;;19.77;100.00
596;BME280;19946;49.306;11.350;2023-08-17T01:46:30;96542.06;;;19.67;100.00
596;BME280;19946;49.306;11.350;2023-08-17T01:49:30;96579.44;;;19.69;100.00
596;BME280;19946;49.306;11.350;2023-08-17T01:52:31;96566.53;;;19.53;100.00
596;BME280;19946;49.306;11.350;2023-08-17T01:55:31;96549.75;;;19.40;100.00
596;BME280;19946;49.306;11.350;2023-08-17T01:58:32;96513.81;;;19.11;100.00
596;BME280;19946;49.306;11.350;2023-08-17T02:01:32;96559.19;;;19.34;100.00
596;BME280;19946;49.306;11.350;2023-08-17T02:04:32;96503.03;;;19.06;100.00
596;BME280;19946;49.306;11.350;2023-08-17T02:07:34;96499.13;;;18.72;100.00
596;BME280;19946;49.306;11.350;2023-08-17T02:10:34;96564.56;;;18.88;100.00
596;BME280;19946;49.306;11.350;2023-08-17T02:13:35;96500.19;;;18.63;100.00
596;BME280;19946;49.306;11.350;2023-08-17T02:16:37;96453.91;;;18.33;100.00
596;BME280;19946;49.306;11.350;2023-08-17T02:19:38;96545.75;;;18.85;100.00
596;BME280;19946;49.306;11.350;2023-08-17T02:22:38;96542.69;;;18.96;100.00
596;BME280;19946;49.306;11.350;2023-08-17T02:25:39;96525.56;;;18.85;100.00
596;BME280;19946;49.306;11.350;2023-08-17T02:28:40;96510.72;;;18.78;100.00
596;BME280;19946;49.306;11.350;2023-08-17T02:31:40;96523.66;;;18.79;100.00
596;BME280;19946;49.306;11.350;2023-08-17T02:34:40;96536.06;;;18.85;100.00
596;BME280;19946;49.306;11.350;2023-08-17T02:37:41;96538.16;;;18.90;100.00
596;BME280;19946;49.306;11.350;2023-08-17T02:40:42;96532.19;;;18.96;100.00
596;BME280;19946;49.306;11.350;2023-08-17T02:43:43;96526.22;;;19.02;100.00
596;BME280;19946;49.306;11.350;2023-08-17T02:46:43;96503.13;;;18.83;100.00
596;BME280;19946;49.306;11.350;2023-08-17T02:49:43;96515.28;;;18.99;100.00
596;BME280;19946;49.306;11.350;2023-08-17T02:52:44;96515.88;;;19.15;100.00
596;BME280;19946;49.306;11.350;2023-08-17T02:55:44;96470.56;;;19.07;100.00
596;BME280;19946;49.306;11.350;2023-08-17T02:58:44;96464.38;;;19.29;100.00
596;BME280;19946;49.306;11.350;2023-08-17T03:01:45;96485.00;;;19.61;100.00
596;BME280;19946;49.306;11.350;2023-08-17T03:04:47;96462.63;;;19.65;100.00
596;BME280;19946;49.306;11.350;2023-08-17T03:07:47;96447.22;;;19.62;100.00
596;BME280;19946;49.306;11.350;2023-08-17T03:10:48;96484.34;;;19.95;100.00
596;BME280;19946;49.306;11.350;2023-08-17T03:13:48;96491.59;;;20.15;100.00
596;BME280;19946;49.306;11.350;2023-08-17T03:16:49;96490.41;;;20.17;100.00
596;BME280;19946;49.306;11.350;2023-08-17T03:19:49;96460.19;;;20.07;100.00
596;BME280;19946;49.306;11.350;2023-08-17T03:22:50;96444.94;;;19.95;100.00
596;BME280;19946;49.306;11.350;2023-08-17T03:25:52;96479.25;;;19.73;100.00
596;BME280;19946;49.306;11.350;2023-08-17T03:28:53;96465.72;;;19.40;100.00
596;BME280;19946;49.306;11.350;2023-08-17T03:31:54;96499.69;;;19.56;100.00
596;BME280;19946;49.306;11.350;2023-08-17T03:34:54;96450.31;;;19.37;100.00
596;BME280;19946;49.306;11.350;2023-08-17T03:37:55;96491.13;;;19.68;100.00
596;BME280;19946;49.306;11.350;2023-08-17T03:40:55;96490.22;;;19.76;100.00
596;BME280;19946;49.306;11.350;2023-08-17T03:43:57;96426.91;;;19.35;100.00
596;BME280;19946;49.306;11.350;2023-08-17T03:46:58;96443.28;;;19.52;100.00
596;BME280;19946;49.306;11.350;2023-08-17T03:49:58;96444.81;;;19.46;100.00
596;BME280;19946;49.306;11.350;2023-08-17T03:52:59;96459.84;;;19.38;100.00
596;BME280;19946;49.306;11.350;2023-08-17T03:55:59;96460.59;;;19.31;100.00
596;BME280;19946;49.306;11.350;2023-08-17T03:59:00;96438.50;;;19.26;100.00
596;BME280;19946;49.306;11.350;2023-08-17T04:02:00;96490.38;;;19.53;100.00
596;BME280;19946;49.306;11.350;2023-08-17T04:05:00;96520.03;;;19.68;100.00
596;BME280;19946;49.306;11.350;2023-08-17T04:08:01;96483.75;;;19.57;100.00
596;BME280;19946;49.306;11.350;2023-08-17T04:11:04;96532.44;;;19.75;100.00
596;BME280;19946;49.306;11.350;2023-08-17T04:14:04;96518.91;;;19.56;100.00
596;BME280;19946;49.306;11.350;2023-08-17T04:17:05;96445.47;;;19.19;100.00
596;BME280;19946;49.306;11.350;2023-08-17T04:20:06;96531.69;;;19.81;100.00
596;BME280;19946;49.306;11.350;2023-08-17T04:23:07;96533.16;;;19.68;100.00
596;BME280;19946;49.306;11.350;2023-08-17T04:26:07;96536.81;;;19.67;100.00
596;BME280;19946;49.306;11.350;2023-08-17T04:29:09;96480.66;;;19.39;100.00
596;BME280;19946;49.306;11.350;2023-08-17T04:32:14;96420.81;;;18.99;100.00
596;BME280;19946;49.306;11.350;2023-08-17T04:35:15;96484.66;;;19.35;100.00
596;BME280;19946;49.306;11.350;2023-08-17T04:38:15;96449.19;;;19.24;100.00
596;BME280;19946;49.306;11.350;2023-08-17T04:41:17;96481.75;;;19.30;100.00
596;BME280;19946;49.306;11.350;2023-08-17T04:44:17;96507.84;;;19.46;100.00
596;BME280;19946;49.306;11.350;2023-08-17T04:47:17;96506.03;;;19.47;100.00
596;BME280;19946;49.306;11.350;2023-08-17T04:50:18;96512.72;;;19.49;100.00
596;BME280;19946;49.306;11.350;2023-08-17T04:53:19;96486.56;;;19.41;100.00
596;BME280;19946;49.306;11.350;2023-08-17T04:56:19;96479.78;;;19.32;100.00
596;BME280;19946;49.306;11.350;2023-08-17T04:59:20;96516.16;;;19.50;100.00
596;BME280;19946;49.306;11.350;2023-08-17T05:02:21;96462.22;;;19.32;100.00
596;BME280;19946;49.306;11.350;2023-08-17T05:05:22;96401.31;;;19.08;100.00
596;BME280;19946;49.306;11.350;2023-08-17T05:08:23;96421.78;;;19.12;100.00
596;BME280;19946;49.306;11.350;2023-08-17T05:11:23;96467.41;;;19.47;100.00
596;BME280;19946;49.306;11.350;2023-08-17T05:14:24;96466.44;;;19.48;100.00
596;BME280;19946;49.306;11.350;2023-08-17T05:17:24;96528.97;;;19.89;100.00
596;BME280;19946;49.306;11.350;2023-08-17T05:20:25;96516.34;;;19.99;100.00
596;BME280;19946;49.306;11.350;2023-08-17T05:23:26;96519.34;;;19.96;100.00
596;BME280;19946;49.306;11.350;2023-08-17T05:26:27;96491.47;;;20.23;100.00
596;BME280;19946;49.306;11.350;2023-08-17T05:29:27;96480.53;;;20.40;100.00
596;BME280;19946;49.306;11.350;2023-08-17T05:32:28;96503.81;;;20.65;100.00
596;BME280;19946;49.306;11.350;2023-08-17T05:35:29;96442.25;;;20.10;100.00
596;BME280;19946;49.306;11.350;2023-08-17T05:38:29;96525.84;;;20.64;100.00
596;BME280;19946;49.306;11.350;2023-08-17T05:41:29;96493.31;;;20.44;100.00
596;BME280;19946;49.306;11.350;2023-08-17T05:44:30;96416.06;;;20.02;100.00
596;BME280;19946;49.306;11.350;2023-08-17T05:47:30;96433.13;;;20.13;100.00
596;BME280;19946;49.306;11.350;2023-08-17T05:50:30;96518.75;;;20.92;100.00
596;BME280;19946;49.306;11.350;2023-08-17T05:53:31;96525.50;;;21.01;100.00
596;BME280;19946;49.306;11.350;2023-08-17T05:56:31;96459.09;;;20.65;100.00
596;BME280;19946;49.306;11.350;2023-08-17T05:59:31;96514.94;;;20.95;100.00
596;BME280;19946;49.306;11.350;2023-08-17T06:02:32;96494.44;;;20.90;100.00
596;BME280;19946;49.306;11.350;2023-08-17T06:05:32;96466.03;;;20.79;100.00
596;BME280;19946;49.306;11.350;2023-08-17T06:08:33;96502.44;;;21.03;100.00
596;BME280;19946;49.306;11.350;2023-08-17T06:11:34;96538.69;;;21.29;100.00
596;BME280;19946;49.306;11.350;2023-08-17T06:14:34;96483.56;;;21.00;100.00
596;BME280;19946;49.306;11.350;2023-08-17T06:17:34;96535.50;;;21.47;100.00
596;BME280;19946;49.306;11.350;2023-08-17T06:20:35;96538.50;;;21.37;100.00
596;BME280;19946;49.306;11.350;2023-08-17T06:23:35;96482.44;;;21.09;100.00
596;BME280;19946;49.306;11.350;2023-08-17T06:26:35;96520.84;;;21.31;100.00
596;BME280;19946;49.306;11.350;2023-08-17T06:29:41;96541.03;;;21.52;100.00
596;BME280;19946;49.306;11.350;2023-08-17T06:32:44;96539.41;;;21.58;100.00
596;BME280;19946;49.306;11.350;2023-08-17T06:35:44;96473.03;;;21.34;100.00
596;BME280;19946;49.306;11.350;2023-08-17T06:38:45;96539.09;;;21.80;100.00
596;BME280;19946;49.306;11.350;2023-08-17T06:41:45;96510.44;;;21.64;100.00
596;BME280;19946;49.306;11.350;2023-08-17T06:44:45;96504.94;;;21.53;100.00
596;BME280;19946;49.306;11.350;2023-08-17T06:47:46;96483.28;;;21.64;100.00
596;BME280;19946;49.306;11.350;2023-08-17T06:50:48;96542.06;;;22.18;100.00
596;BME280;19946;49.306;11.350;2023-08-17T06:53:49;96474.78;;;21.68;100.00
596;BME280;19946;49.306;11.350;2023-08-17T06:56:49;96499.56;;;21.87;100.00
596;BME280;19946;49.306;11.350;2023-08-17T06:59:49;96544.31;;;22.28;100.00
596;BME280;19946;49.306;11.350;2023-08-17T07:02:50;96525.66;;;22.16;100.00
596;BME280;19946;49.306;11.350;2023-08-17T07:05:50;96479.09;;;21.96;100.00
596;BME280;19946;49.306;11.350;2023-08-17T07:08:50;96543.13;;;22.37;100.00
596;BME280;19946;49.306;11.350;2023-08-17T07:11:52;96531.56;;;22.38;100.00
596;BME280;19946;49.306;11.350;2023-08-17T07:14:53;96544.97;;;22.63;100.00
596;BME280;19946;49.306;11.350;2023-08-17T07:17:54;96478.97;;;22.30;100.00
596;BME280;19946;49.306;11.350;2023-08-17T07:20:54;96550.47;;;22.94;100.00
596;BME280;19946;49.306;11.350;2023-08-17T07:23:55;96554.94;;;22.94;100.00
596;BME280;19946;49.306;11.350;2023-08-17T07:26:55;96545.59;;;22.98;100.00
596;BME280;19946;49.306;11.350;2023-08-17T07:29:56;96554.88;;;23.34;100.00
596;BME280;19946;49.306;11.350;2023-08-17T07:32:56;96519.97;;;23.18;100.00
596;BME280;19946;49.306;11.350;2023-08-17T07:35:56;96491.16;;;23.04;100.00
596;BME280;19946;49.306;11.350;2023-08-17T07:38:58;96460.28;;;22.98;100.00
596;BME280;19946;49.306;11.350;2023-08-17T07:41:59;96558.19;;;23.87;100.00
596;BME280;19946;49.306;11.350;2023-08-17T07:44:59;96566.09;;;23.93;100.00
596;BME280;19946;49.306;11.350;2023-08-17T07:48:01;96546.91;;;24.05;100.00
596;BME280;19946;49.306;11.350;2023-08-17T07:51:01;96531.97;;;24.17;100.00
596;BME280;19946;49.306;11.350;2023-08-17T07:54:02;96499.84;;;24.13;100.00
596;BME280;19946;49.306;11.350;2023-08-17T07:57:03;96560.22;;;24.29;100.00
596;BME280;19946;49.306;11.350;2023-08-17T08:00:06;96562.69;;;24.56;100.00
596;BME280;19946;49.306;11.350;2023-08-17T08:03:09;96513.25;;;24.18;100.00
596;BME280;19946;49.306;11.350;2023-08-17T08:06:09;96520.47;;;24.36;100.00
596;BME280;19946;49.306;11.350;2023-08-17T08:09:10;96472.84;;;24.05;100.00
596;BME280;19946;49.306;11.350;2023-08-17T08:12:10;96507.91;;;24.56;100.00
596;BME280;19946;49.306;11.350;2023-08-17T08:15:10;96520.88;;;25.14;100.00
596;BME280;19946;49.306;11.350;2023-08-17T08:18:11;96516.59;;;25.31;100.00
596;BME280;19946;49.306;11.350;2023-08-17T08:21:11;96504.34;;;25.85;100.00
596;BME280;19946;49.306;11.350;2023-08-17T08:24:11;96507.91;;;26.27;100.00
596;BME280;19946;49.306;11.350;2023-08-17T08:27:12;96542.31;;;26.34;100.00
596;BME280;19946;49.306;11.350;2023-08-17T08:30:12;96546.78;;;26.03;100.00
596;BME280;19946;49.306;11.350;2023-08-17T08:33:12;96544.53;;;26.18;100.00
596;BME280;19946;49.306;11.350;2023-08-17T08:36:13;96546.69;;;26.81;100.00
596;BME280;19946;49.306;11.350;2023-08-17T08:39:13;96550.97;;;26.94;100.00
596;BME280;19946;49.306;11.350;2023-08-17T08:42:13;96500.63;;;27.11;100.00
596;BME280;19946;49.306;11.350;2023-08-17T08:45:14;96450.00;;;27.06;98.53
596;BME280;19946;49.306;11.350;2023-08-17T08:48:15;96531.22;;;28.00;100.00
596;BME280;19946;49.306;11.350;2023-08-17T08:51:21;96495.84;;;27.88;89.81
596;BME280;19946;49.306;11.350;2023-08-17T08:54:26;96507.06;;;27.90;100.00
596;BME280;19946;49.306;11.350;2023-08-17T08:57:27;96529.69;;;28.32;95.08
596;BME280;19946;49.306;11.350;2023-08-17T09:00:28;96527.81;;;28.05;96.12
596;BME280;19946;49.306;11.350;2023-08-17T09:03:30;96530.50;;;28.33;100.00
596;BME280;19946;49.306;11.350;2023-08-17T09:06:33;96469.63;;;28.25;89.00
596;BME280;19946;49.306;11.350;2023-08-17T09:09:34;96469.06;;;27.94;84.44
596;BME280;19946;49.306;11.350;2023-08-17T09:12:35;96518.72;;;28.46;94.17
596;BME280;19946;49.306;11.350;2023-08-17T09:15:35;96477.22;;;27.88;88.89
596;BME280;19946;49.306;11.350;2023-08-17T09:18:36;96528.34;;;27.15;100.00
596;BME280;19946;49.306;11.350;2023-08-17T09:21:36;96539.75;;;28.02;100.00
596;BME280;19946;49.306;11.350;2023-08-17T09:24:37;96479.09;;;28.32;98.20
596;BME280;19946;49.306;11.350;2023-08-17T09:27:38;96540.22;;;27.59;100.00
596;BME280;19946;49.306;11.350;2023-08-17T09:30:58;96533.41;;;27.91;100.00
596;BME280;19946;49.306;11.350;2023-08-17T09:34:05;96525.34;;;27.86;100.00
596;BME280;19946;49.306;11.350;2023-08-17T09:37:05;96532.13;;;27.54;100.00
596;BME280;19946;49.306;11.350;2023-08-17T09:40:06;96468.38;;;26.19;100.00
596;BME280;19946;49.306;11.350;2023-08-17T09:43:08;96483.06;;;26.98;100.00
596;BME280;19946;49.306;11.350;2023-08-17T09:46:09;96460.72;;;27.34;100.00
596;BME280;19946;49.306;11.350;2023-08-17T09:49:09;96533.41;;;28.31;99.50
596;BME280;19946;49.306;11.350;2023-08-17T09:52:10;96490.09;;;28.08;99.48
596;BME280;19946;49.306;11.350;2023-08-17T09:55:11;96504.88;;;28.44;96.20
596;BME280;19946;49.306;11.350;2023-08-17T09:58:12;96505.75;;;28.66;86.54
596;BME280;19946;49.306;11.350;2023-08-17T10:01:17;96519.78;;;28.45;94.50
596;BME280;19946;49.306;11.350;2023-08-17T10:04:21;96468.78;;;27.27;84.33
596;BME280;19946;49.306;11.350;2023-08-17T10:07:29;96490.25;;;27.49;100.00
596;BME280;19946;49.306;11.350;2023-08-17T10:10:31;96467.09;;;27.73;94.12
596;BME280;19946;49.306;11.350;2023-08-17T10:13:42;96508.31;;;27.99;100.00
596;BME280;19946;49.306;11.350;2023-08-17T10:16:57;96466.59;;;28.05;97.83
596;BME280;19946;49.306;11.350;2023-08-17T10:20:00;96497.03;;;28.70;94.54
596;BME280;19946;49.306;11.350;2023-08-17T10:23:09;96511.38;;;28.69;91.73
596;BME280;19946;49.306;11.350;2023-08-17T10:26:10;96507.50;;;27.47;97.33
596;BME280;19946;49.306;11.350;2023-08-17T10:29:11;96493.84;;;28.23;89.69
596;BME280;19946;49.306;11.350;2023-08-17T10:32:12;96508.75;;;27.96;95.12
596;BME280;19946;49.306;11.350;2023-08-17T10:35:13;96461.81;;;27.61;84.86
596;BME280;19946;49.306;11.350;2023-08-17T10:38:15;96441.00;;;27.87;76.24
596;BME280;19946;49.306;11.350;2023-08-17T10:41:15;96462.19;;;28.10;86.57
596;BME280;19946;49.306;11.350;2023-08-17T10:44:17;96450.72;;;27.81;77.57
596;BME280;19946;49.306;11.350;2023-08-17T10:47:30;96424.34;;;28.75;100.00
596;BME280;19946;49.306;11.350;2023-08-17T10:50:32;96500.44;;;29.38;74.38
596;BME280;19946;49.306;11.350;2023-08-17T10:53:36;96501.94;;;28.45;74.45
596;BME280;19946;49.306;11.350;2023-08-17T10:56:40;96459.09;;;28.30;78.17
596;BME280;19946;49.306;11.350;2023-08-17T10:59:42;96475.94;;;28.69;92.42
596;BME280;19946;49.306;11.350;2023-08-17T11:02:44;96483.31;;;28.79;78.63
596;BME280;19946;49.306;11.350;2023-08-17T11:05:52;96491.97;;;29.41;74.69
596;BME280;19946;49.306;11.350;2023-08-17T11:08:55;96438.59;;;28.02;85.46
596;BME280;19946;49.306;11.350;2023-08-17T11:11:59;96470.94;;;28.22;85.21
596;BME280;19946;49.306;11.350;2023-08-17T11:15:00;96491.78;;;28.14;86.89
596;BME280;19946;49.306;11.350;2023-08-17T11:18:00;96498.88;;;28.37;74.47
596;BME280;19946;49.306;11.350;2023-08-17T11:21:05;96484.25;;;29.06;65.13
596;BME280;19946;49.306;11.350;2023-08-17T11:24:06;96489.34;;;29.08;65.53
596;BME280;19946;49.306;11.350;2023-08-17T11:27:09;96484.03;;;28.57;75.06
596;BME280;19946;49.306;11.350;2023-08-17T11:30:10;96430.50;;;28.59;71.57
596;BME280;19946;49.306;11.350;2023-08-17T11:33:11;96484.84;;;28.41;76.58
596;BME280;19946;49.306;11.350;2023-08-17T11:36:11;96472.56;;;28.90;76.39
596;BME280;19946;49.306;11.350;2023-08-17T11:39:12;96479.97;;;28.38;72.05
596;BME280;19946;49.306;11.350;2023-08-17T11:42:14;96354.22;;;28.03;70.05
596;BME280;19946;49.306;11.350;2023-08-17T11:45:14;96498.34;;;28.85;70.00
596;BME280;19946;49.306;11.350;2023-08-17T11:48:15;96380.19;;;27.79;68.98
596;BME280;19946;49.306;11.350;2023-08-17T11:51:28;96472.25;;;28.87;66.01
596;BME280;19946;49.306;11.350;2023-08-17T11:54:32;96479.13;;;29.21;73.12
596;BME280;19946;49.306;11.350;2023-08-17T11:57:33;96476.56;;;29.48;69.77
596;BME280;19946;49.306;11.350;2023-08-17T12:00:41;96465.78;;;28.66;74.87
596;BME280;19946;49.306;11.350;2023-08-17T12:03:42;96451.22;;;28.23;77.54
596;BME280;19946;49.306;11.350;2023-08-17T12:06:44;96445.25;;;28.66;67.16
596;BME280;19946;49.306;11.350;2023-08-17T12:09:45;96400.56;;;28.35;74.03
596;BME280;19946;49.306;11.350;2023-08-17T12:12:47;96416.47;;;28.47;68.14
596;BME280;19946;49.306;11.350;2023-08-17T12:15:48;96463.97;;;29.44;68.04
596;BME280;19946;49.306;11.350;2023-08-17T12:18:50;96389.81;;;29.02;61.53
596;BME280;19946;49.306;11.350;2023-08-17T12:21:50;96458.75;;;29.54;62.79
596;BME280;19946;49.306;11.350;2023-08-17T12:24:52;96432.50;;;29.46;64.18
596;BME280;19946;49.306;11.350;2023-08-17T12:27:52;96448.03;;;29.49;77.25
596;BME280;19946;49.306;11.350;2023-08-17T12:31:00;96427.00;;;29.30;66.16
596;BME280;19946;49.306;11.350;2023-08-17T12:34:01;96380.53;;;29.04;56.93
596;BME280;19946;49.306;11.350;2023-08-17T12:37:01;96424.84;;;29.11;59.13
596;BME280;19946;49.306;11.350;2023-08-17T12:40:02;96415.56;;;29.13;57.33
596;BME280;19946;49.306;11.350;2023-08-17T12:43:04;96431.16;;;29.43;57.21
596;BME280;19946;49.306;11.350;2023-08-17T12:46:04;96375.25;;;29.10;69.91
596;BME280;19946;49.306;11.350;2023-08-17T12:49:04;96406.69;;;30.00;61.57
596;BME280;19946;49.306;11.350;2023-08-17T12:52:05;96413.41;;;30.07;60.20
596;BME280;19946;49.306;11.350;2023-08-17T12:55:05;96388.59;;;29.80;61.16
596;BME280;19946;49.306;11.350;2023-08-17T12:58:09;96393.13;;;29.53;65.52
596;BME280;19946;49.306;11.350;2023-08-17T13:01:10;96425.28;;;29.68;67.21
596;BME280;19946;49.306;11.350;2023-08-17T13:04:10;96408.13;;;30.44;66.43
596;BME280;19946;49.306;11.350;2023-08-17T13:07:11;96373.97;;;29.88;61.68
596;BME280;19946;49.306;11.350;2023-08-17T13:10:11;96410.34;;;29.94;62.59
596;BME280;19946;49.306;11.350;2023-08-17T13:13:11;96349.63;;;29.52;63.56
596;BME280;19946;49.306;11.350;2023-08-17T13:16:12;96366.81;;;29.61;64.41
596;BME280;19946;49.306;11.350;2023-08-17T13:19:13;96408.66;;;29.83;65.27
596;BME280;19946;49.306;11.350;2023-08-17T13:22:13;96371.63;;;29.37;61.59
596;BME280;19946;49.306;11.350;2023-08-17T13:25:13;96397.81;;;29.67;63.60
596;BME280;19946;49.306;11.350;2023-08-17T13:28:14;96392.72;;;29.66;60.64
596;BME280;19946;49.306;11.350;2023-08-17T13:31:14;96400.72;;;29.93;58.94
596;BME280;19946;49.306;11.350;2023-08-17T13:34:14;96343.63;;;29.67;56.95
596;BME280;19946;49.306;11.350;2023-08-17T13:37:15;96335.75;;;29.50;55.16
596;BME280;19946;49.306;11.350;2023-08-17T13:40:15;96322.16;;;29.30;59.38
596;BME280;19946;49.306;11.350;2023-08-17T13:43:15;96349.63;;;29.79;57.80
596;BME280;19946;49.306;11.350;2023-08-17T13:46:16;96337.41;;;30.15;63.20
596;BME280;19946;49.306;11.350;2023-08-17T13:49:16;96328.72;;;29.98;56.55
596;BME280;19946;49.306;11.350;2023-08-17T13:52:16;96360.44;;;30.26;60.30
596;BME280;19946;49.306;11.350;2023-08-17T13:55:16;96288.41;;;29.99;51.45
596;BME280;19946;49.306;11.350;2023-08-17T13:58:20;96367.59;;;30.16;50.52
596;BME280;19946;49.306;11.350;2023-08-17T14:01:20;96382.28;;;29.64;57.08
596;BME280;19946;49.306;11.350;2023-08-17T14:04:20;96374.22;;;30.13;53.73
596;BME280;19946;49.306;11.350;2023-08-17T14:07:21;96369.03;;;30.28;50.17
596;BME280;19946;49.306;11.350;2023-08-17T14:10:21;96356.53;;;30.39;54.64
596;BME280;19946;49.306;11.350;2023-08-17T14:13:21;96283.63;;;29.69;52.84
596;BME280;19946;49.306;11.350;2023-08-17T14:16:22;96350.44;;;29.53;55.03
596;BME280;19946;49.306;11.350;2023-08-17T14:19:23;96346.69;;;29.54;54.71
596;BME280;19946;49.306;11.350;2023-08-17T14:22:23;96338.97;;;30.48;56.61
596;BME280;19946;49.306;11.350;2023-08-17T14:25:23;96341.66;;;31.00;54.26
596;BME280;19946;49.306;11.350;2023-08-17T14:28:24;96324.03;;;29.56;55.80
596;BME280;19946;49.306;11.350;2023-08-17T14:31:24;96328.59;;;29.34;57.20
596;BME280;19946;49.306;11.350;2023-08-17T14:34:24;96264.97;;;29.21;54.30
596;BME280;19946;49.306;11.350;2023-08-17T14:37:25;96277.88;;;29.88;52.30
596;BME280;19946;49.306;11.350;2023-08-17T14:40:25;96340.91;;;31.10;51.89
596;BME280;19946;49.306;11.350;2023-08-17T14:43:25;96271.63;;;30.51;56.59
596;BME280;19946;49.306;11.350;2023-08-17T14:46:26;96289.41;;;29.93;53.07
596;BME280;19946;49.306;11.350;2023-08-17T14:49:26;96304.31;;;29.57;56.51
596;BME280;19946;49.306;11.350;2023-08-17T14:52:27;96284.56;;;29.31;53.20
596;BME280;19946;49.306;11.350;2023-08-17T14:55:30;96297.53;;;29.23;58.05
596;BME280;19946;49.306;11.350;2023-08-17T14:58:31;96311.25;;;29.10;55.29
596;BME280;19946;49.306;11.350;2023-08-17T15:01:31;96303.13;;;28.56;55.82
596;BME280;19946;49.306;11.350;2023-08-17T15:04:31;96268.75;;;28.32;59.91
596;BME280;19946;49.306;11.350;2023-08-17T15:07:32;96244.00;;;27.98;59.00
596;BME280;19946;49.306;11.350;2023-08-17T15:10:33;96240.53;;;27.81;57.83
596;BME280;19946;49.306;11.350;2023-08-17T15:13:35;96284.69;;;28.16;58.26
596;BME280;19946;49.306;11.350;2023-08-17T15:16:35;96244.16;;;27.92;58.56
596;BME280;19946;49.306;11.350;2023-08-17T15:19:35;96261.50;;;27.94;59.67
596;BME280;19946;49.306;11.350;2023-08-17T15:22:36;96299.09;;;27.98;59.61
596;BME280;19946;49.306;11.350;2023-08-17T15:25:36;96322.06;;;28.04;58.73
596;BME280;19946;49.306;11.350;2023-08-17T15:28:40;96270.38;;;27.67;59.36
596;BME280;19946;49.306;11.350;2023-08-17T15:31:40;96267.81;;;27.55;65.43
596;BME280;19946;49.306;11.350;2023-08-17T15:34:40;96331.00;;;28.15;65.38
596;BME280;19946;49.306;11.350;2023-08-17T15:37:41;96329.19;;;27.53;78.10
596;BME280;19946;49.306;11.350;2023-08-17T15:40:41;96317.22;;;27.39;71.72
596;BME280;19946;49.306;11.350;2023-08-17T15:43:41;96326.81;;;27.69;68.20
596;BME280;19946;49.306;11.350;2023-08-17T15:46:42;96319.88;;;27.68;69.23
596;BME280;19946;49.306;11.350;2023-08-17T15:49:42;96216.00;;;27.12;68.76
596;BME280;19946;49.306;11.350;2023-08-17T15:52:42;96280.66;;;27.46;75.45
596;BME280;19946;49.306;11.350;2023-08-17T15:55:43;96345.38;;;27.52;74.34
596;BME280;19946;49.306;11.350;2023-08-17T15:58:43;96307.78;;;27.03;96.49
596;BME280;19946;49.306;11.350;2023-08-17T16:01:43;96373.00;;;26.47;100.00
596;BME280;19946;49.306;11.350;2023-08-17T16:04:44;96332.66;;;25.92;100.00
596;BME280;19946;49.306;11.350;2023-08-17T16:07:44;96332.44;;;26.05;100.00